Naples, FL

8:08 PM EDT on May 30, 2015 (GMT -0400)
Naples Municipal | | Change Station
CLOSE
Current Station
Airport
Location: Naples,
Elevation: 10 ft
Nearby Weather Stations

Elev 10 ft 26.16 °N, 81.77 °W | Updated 7 minutes ago

Partly Cloudy
Partly Cloudy
76 °F
Feels Like 76 °F
N
12
Wind Variable Wind from SE
Gusts 20 mph

Today
High -- | Low -- °F
--% Chance of Precip.
Yesterday
High -- | Low -- °F
Precip. -- in
6:35 AM 8:14 PM
Waxing Gibbous, 93% visible
Pressure 30.01 in
Visibility 1.8 miles
Clouds Mostly Cloudy 2400 ft
Mostly Cloudy 3100 ft
Overcast 4500 ft
Dew Point 72 °F
Humidity 87%
Rainfall 0.38 in
Snow Depth Not available.
UV 0 out of 12
Pollen 3.70 out of 12
Air Quality Not available.
Flu Activity Sporadic
SPECI KAPF 310001Z 14010G17KT 1 3/4SM -TSRA BR BKN024 BKN031 OVC045 24/22 A3001 RMK AO2 LTG DSNT ALQDS P0009 T02440222

More Conditions Fewer Conditions

Pressure 30.01 in
Visibility 1.8 miles
Clouds Mostly Cloudy 2400 ft
Mostly Cloudy 3100 ft
Overcast 4500 ft
Dew Point 72 °F
Humidity 87%
Rainfall 0.38 in
Snow Depth Not available.
UV 0 out of 12
Pollen 3.70 out of 12
Air Quality Not available.
Flu Activity Sporadic
SPECI KAPF 310001Z 14010G17KT 1 3/4SM -TSRA BR BKN024 BKN031 OVC045 24/22 A3001 RMK AO2 LTG DSNT ALQDS P0009 T02440222

More Conditions Fewer Conditions

Nowcast | as of 6:43 PM EDT on May 30, 2015

Scattered showers and a few thunderstorms over interior Collier County will advance slowly westward to affect portions of the greater Naples area as well as the near shore Gulf waters later this evening. A few lightning strikes and heavy downpours will be the main impacts from the thunderstorms this evening.

×

10-Day Weather Forecast

Almanac

Astronomy

May. 30, 2015 Rise Set
Actual Time
Civil Twilight
Nautical Twilight
Astronomical Twilight
Moon
Length of Visible Light
Length of Day
Tomorrow will be .
, % of the Moon is Illuminated

Today's Extremes

State Highs State Lows

Community

WunderPhotos

Upload Photos

1,825,558 photos uploaded!

WunderBlogs® & News

Nearby

Air Quality

  Air Quality AQ Index Pollutant
Not available.

Snow Depth

Station Depth Elevation

Earthquake Activity

City Distance Mag. Time & Date
Minimum magnitude displayed is 2.5.

Coastal Water Temperatures

Place Temperature

Stations

Nearby Weather Stations

Station Location Temp. Windchill Dew Point Humidity Wind Precip. Elev Updated Type